Terminal Aerodrome Forecast
Issued by NWS

Current Version | Previous Version | Text Only | Print | Product List | Glossary On
Versions: 1 2 3 4 5 6 7 8 9 10 11 12
000
FTUS42 KGSP 201730
TAFHKY
TAF
KHKY 201730Z 2018/2118 00000KT P6SM SCT250
     FM211000 07003KT P6SM BKN110
     FM211100 08003KT P6SM BKN015
     FM211200 08003KT P6SM BKN008
     FM211600 11004KT P6SM BKN010=

USA.gov is the U.S. government's official web portal to all federal, state and local government web resources and services.